sensor_id;sensor_type;location;lat;lon;timestamp;P1;durP1;ratioP1;P2;durP2;ratioP2
6131;SDS011;3097;42.692;23.278;2024-02-14T00:01:51;7.23;;;6.33;;
6131;SDS011;3097;42.692;23.278;2024-02-14T00:04:16;7.43;;;6.60;;
6131;SDS011;3097;42.692;23.278;2024-02-14T00:06:42;7.37;;;6.37;;
6131;SDS011;3097;42.692;23.278;2024-02-14T00:09:08;7.20;;;6.37;;
6131;SDS011;3097;42.692;23.278;2024-02-14T00:11:34;7.17;;;6.33;;
6131;SDS011;3097;42.692;23.278;2024-02-14T00:13:59;7.47;;;6.40;;
6131;SDS011;3097;42.692;23.278;2024-02-14T00:16:25;6.90;;;6.20;;
6131;SDS011;3097;42.692;23.278;2024-02-14T00:18:55;7.77;;;6.37;;
6131;SDS011;3097;42.692;23.278;2024-02-14T00:21:22;10.37;;;6.70;;
6131;SDS011;3097;42.692;23.278;2024-02-14T00:23:48;7.43;;;6.37;;
6131;SDS011;3097;42.692;23.278;2024-02-14T00:26:13;7.17;;;6.47;;
6131;SDS011;3097;42.692;23.278;2024-02-14T00:28:39;7.60;;;6.27;;
6131;SDS011;3097;42.692;23.278;2024-02-14T00:31:04;8.00;;;6.27;;
6131;SDS011;3097;42.692;23.278;2024-02-14T00:33:31;9.70;;;6.67;;
6131;SDS011;3097;42.692;23.278;2024-02-14T00:35:56;9.60;;;7.13;;
6131;SDS011;3097;42.692;23.278;2024-02-14T00:38:22;8.80;;;7.10;;
6131;SDS011;3097;42.692;23.278;2024-02-14T00:40:47;10.47;;;6.60;;
6131;SDS011;3097;42.692;23.278;2024-02-14T00:43:13;8.20;;;6.87;;
6131;SDS011;3097;42.692;23.278;2024-02-14T00:45:39;8.40;;;6.30;;
6131;SDS011;3097;42.692;23.278;2024-02-14T00:48:04;8.27;;;7.10;;
6131;SDS011;3097;42.692;23.278;2024-02-14T00:50:30;7.47;;;6.67;;
6131;SDS011;3097;42.692;23.278;2024-02-14T00:52:56;9.77;;;7.10;;
6131;SDS011;3097;42.692;23.278;2024-02-14T00:55:21;9.40;;;7.17;;
6131;SDS011;3097;42.692;23.278;2024-02-14T00:57:47;8.17;;;6.63;;
6131;SDS011;3097;42.692;23.278;2024-02-14T01:00:12;9.40;;;6.80;;
6131;SDS011;3097;42.692;23.278;2024-02-14T01:02:38;9.37;;;6.67;;
6131;SDS011;3097;42.692;23.278;2024-02-14T01:05:04;10.10;;;7.17;;
6131;SDS011;3097;42.692;23.278;2024-02-14T01:07:30;10.50;;;7.17;;
6131;SDS011;3097;42.692;23.278;2024-02-14T01:09:55;10.20;;;7.43;;
6131;SDS011;3097;42.692;23.278;2024-02-14T01:12:21;8.30;;;7.03;;
6131;SDS011;3097;42.692;23.278;2024-02-14T01:14:46;10.07;;;7.10;;
6131;SDS011;3097;42.692;23.278;2024-02-14T01:17:12;8.10;;;7.00;;
6131;SDS011;3097;42.692;23.278;2024-02-14T01:19:37;9.50;;;7.13;;
6131;SDS011;3097;42.692;23.278;2024-02-14T01:22:03;8.63;;;7.17;;
6131;SDS011;3097;42.692;23.278;2024-02-14T01:24:29;13.80;;;8.67;;
6131;SDS011;3097;42.692;23.278;2024-02-14T01:26:55;10.27;;;8.00;;
6131;SDS011;3097;42.692;23.278;2024-02-14T01:29:21;9.73;;;7.63;;
6131;SDS011;3097;42.692;23.278;2024-02-14T01:31:48;10.83;;;7.43;;
6131;SDS011;3097;42.692;23.278;2024-02-14T01:34:15;10.13;;;7.80;;
6131;SDS011;3097;42.692;23.278;2024-02-14T01:36:40;8.20;;;7.00;;
6131;SDS011;3097;42.692;23.278;2024-02-14T01:39:06;10.93;;;7.93;;
6131;SDS011;3097;42.692;23.278;2024-02-14T01:41:36;10.03;;;7.20;;
6131;SDS011;3097;42.692;23.278;2024-02-14T01:44:13;8.73;;;7.13;;
6131;SDS011;3097;42.692;23.278;2024-02-14T01:46:39;8.57;;;7.30;;
6131;SDS011;3097;42.692;23.278;2024-02-14T01:49:05;9.53;;;7.70;;
6131;SDS011;3097;42.692;23.278;2024-02-14T01:51:30;12.07;;;8.17;;
6131;SDS011;3097;42.692;23.278;2024-02-14T01:53:57;10.43;;;7.47;;
6131;SDS011;3097;42.692;23.278;2024-02-14T01:56:24;12.90;;;8.93;;
6131;SDS011;3097;42.692;23.278;2024-02-14T01:58:50;10.17;;;8.27;;
6131;SDS011;3097;42.692;23.278;2024-02-14T02:01:16;11.07;;;8.17;;
6131;SDS011;3097;42.692;23.278;2024-02-14T02:03:43;10.93;;;8.63;;
6131;SDS011;3097;42.692;23.278;2024-02-14T02:06:08;11.70;;;8.70;;
6131;SDS011;3097;42.692;23.278;2024-02-14T02:08:34;10.93;;;8.80;;
6131;SDS011;3097;42.692;23.278;2024-02-14T02:11:00;11.03;;;7.93;;
6131;SDS011;3097;42.692;23.278;2024-02-14T02:13:26;10.43;;;8.40;;
6131;SDS011;3097;42.692;23.278;2024-02-14T02:15:53;14.03;;;9.73;;
6131;SDS011;3097;42.692;23.278;2024-02-14T02:18:19;9.53;;;7.90;;
6131;SDS011;3097;42.692;23.278;2024-02-14T02:20:45;11.07;;;8.07;;
6131;SDS011;3097;42.692;23.278;2024-02-14T02:23:11;9.57;;;7.73;;
6131;SDS011;3097;42.692;23.278;2024-02-14T02:25:43;10.57;;;7.73;;
6131;SDS011;3097;42.692;23.278;2024-02-14T02:28:08;11.63;;;8.67;;
6131;SDS011;3097;42.692;23.278;2024-02-14T02:30:35;8.97;;;7.83;;
6131;SDS011;3097;42.692;23.278;2024-02-14T02:33:01;9.17;;;7.50;;
6131;SDS011;3097;42.692;23.278;2024-02-14T02:35:27;9.33;;;7.20;;
6131;SDS011;3097;42.692;23.278;2024-02-14T02:37:53;9.53;;;7.83;;
6131;SDS011;3097;42.692;23.278;2024-02-14T02:40:19;9.17;;;7.90;;
6131;SDS011;3097;42.692;23.278;2024-02-14T02:42:46;9.70;;;7.87;;
6131;SDS011;3097;42.692;23.278;2024-02-14T02:45:12;10.17;;;7.63;;
6131;SDS011;3097;42.692;23.278;2024-02-14T02:47:38;11.13;;;8.30;;
6131;SDS011;3097;42.692;23.278;2024-02-14T02:50:05;10.77;;;8.40;;
6131;SDS011;3097;42.692;23.278;2024-02-14T02:52:31;10.87;;;7.87;;
6131;SDS011;3097;42.692;23.278;2024-02-14T02:54:57;9.70;;;7.50;;
6131;SDS011;3097;42.692;23.278;2024-02-14T02:57:22;9.00;;;7.70;;
6131;SDS011;3097;42.692;23.278;2024-02-14T02:59:48;10.00;;;7.97;;
6131;SDS011;3097;42.692;23.278;2024-02-14T03:02:14;10.90;;;7.93;;
6131;SDS011;3097;42.692;23.278;2024-02-14T03:04:40;9.23;;;7.33;;
6131;SDS011;3097;42.692;23.278;2024-02-14T03:07:07;8.63;;;7.53;;
6131;SDS011;3097;42.692;23.278;2024-02-14T03:09:37;9.90;;;7.63;;
6131;SDS011;3097;42.692;23.278;2024-02-14T03:12:02;12.00;;;8.30;;
6131;SDS011;3097;42.692;23.278;2024-02-14T03:14:32;10.70;;;8.47;;
6131;SDS011;3097;42.692;23.278;2024-02-14T03:17:01;11.10;;;8.23;;
6131;SDS011;3097;42.692;23.278;2024-02-14T03:19:27;8.93;;;7.20;;
6131;SDS011;3097;42.692;23.278;2024-02-14T03:21:53;9.57;;;7.57;;
6131;SDS011;3097;42.692;23.278;2024-02-14T03:24:20;10.67;;;8.17;;
6131;SDS011;3097;42.692;23.278;2024-02-14T03:26:45;10.73;;;7.73;;
6131;SDS011;3097;42.692;23.278;2024-02-14T03:29:11;10.73;;;8.30;;
6131;SDS011;3097;42.692;23.278;2024-02-14T03:31:37;10.20;;;8.23;;
6131;SDS011;3097;42.692;23.278;2024-02-14T03:34:03;10.30;;;7.60;;
6131;SDS011;3097;42.692;23.278;2024-02-14T03:36:28;11.17;;;8.77;;
6131;SDS011;3097;42.692;23.278;2024-02-14T03:38:58;10.50;;;8.27;;
6131;SDS011;3097;42.692;23.278;2024-02-14T03:41:29;11.37;;;7.83;;
6131;SDS011;3097;42.692;23.278;2024-02-14T03:43:54;10.27;;;7.97;;
6131;SDS011;3097;42.692;23.278;2024-02-14T03:46:23;10.10;;;8.27;;
6131;SDS011;3097;42.692;23.278;2024-02-14T03:48:49;13.10;;;8.70;;
6131;SDS011;3097;42.692;23.278;2024-02-14T03:51:15;9.00;;;7.63;;
6131;SDS011;3097;42.692;23.278;2024-02-14T03:53:41;10.60;;;8.43;;
6131;SDS011;3097;42.692;23.278;2024-02-14T03:56:06;11.10;;;8.63;;
6131;SDS011;3097;42.692;23.278;2024-02-14T03:58:32;10.17;;;8.30;;
6131;SDS011;3097;42.692;23.278;2024-02-14T04:01:02;9.97;;;8.00;;
6131;SDS011;3097;42.692;23.278;2024-02-14T04:03:29;11.60;;;8.07;;
6131;SDS011;3097;42.692;23.278;2024-02-14T04:05:55;11.70;;;8.80;;
6131;SDS011;3097;42.692;23.278;2024-02-14T04:08:20;13.27;;;8.50;;
6131;SDS011;3097;42.692;23.278;2024-02-14T04:10:47;9.70;;;8.17;;
6131;SDS011;3097;42.692;23.278;2024-02-14T04:13:14;12.90;;;9.57;;
6131;SDS011;3097;42.692;23.278;2024-02-14T04:15:40;13.77;;;9.60;;
6131;SDS011;3097;42.692;23.278;2024-02-14T04:18:08;13.13;;;9.10;;
6131;SDS011;3097;42.692;23.278;2024-02-14T04:20:34;13.33;;;8.80;;
6131;SDS011;3097;42.692;23.278;2024-02-14T04:23:00;11.33;;;8.50;;
6131;SDS011;3097;42.692;23.278;2024-02-14T04:25:25;13.67;;;9.90;;
6131;SDS011;3097;42.692;23.278;2024-02-14T04:27:51;13.73;;;9.50;;
6131;SDS011;3097;42.692;23.278;2024-02-14T04:30:16;15.87;;;10.50;;
6131;SDS011;3097;42.692;23.278;2024-02-14T04:32:42;12.57;;;9.67;;
6131;SDS011;3097;42.692;23.278;2024-02-14T04:35:08;13.83;;;9.50;;
6131;SDS011;3097;42.692;23.278;2024-02-14T04:37:34;14.27;;;9.07;;
6131;SDS011;3097;42.692;23.278;2024-02-14T04:40:00;14.07;;;9.10;;
6131;SDS011;3097;42.692;23.278;2024-02-14T04:42:29;12.47;;;9.93;;
6131;SDS011;3097;42.692;23.278;2024-02-14T04:44:54;14.90;;;9.80;;
6131;SDS011;3097;42.692;23.278;2024-02-14T04:47:20;14.97;;;10.00;;
6131;SDS011;3097;42.692;23.278;2024-02-14T04:49:45;13.73;;;9.67;;
6131;SDS011;3097;42.692;23.278;2024-02-14T04:52:11;15.13;;;9.53;;
6131;SDS011;3097;42.692;23.278;2024-02-14T04:54:36;19.97;;;10.73;;
6131;SDS011;3097;42.692;23.278;2024-02-14T04:57:02;17.77;;;11.27;;
6131;SDS011;3097;42.692;23.278;2024-02-14T04:59:29;13.97;;;10.30;;
6131;SDS011;3097;42.692;23.278;2024-02-14T05:01:55;16.57;;;10.47;;
6131;SDS011;3097;42.692;23.278;2024-02-14T05:04:21;17.53;;;10.83;;
6131;SDS011;3097;42.692;23.278;2024-02-14T05:06:47;16.50;;;10.93;;
6131;SDS011;3097;42.692;23.278;2024-02-14T05:09:15;16.03;;;11.13;;
6131;SDS011;3097;42.692;23.278;2024-02-14T05:11:41;14.50;;;10.20;;
6131;SDS011;3097;42.692;23.278;2024-02-14T05:14:07;15.47;;;11.00;;
6131;SDS011;3097;42.692;23.278;2024-02-14T05:16:32;17.33;;;10.83;;
6131;SDS011;3097;42.692;23.278;2024-02-14T05:18:58;17.13;;;11.43;;
6131;SDS011;3097;42.692;23.278;2024-02-14T05:21:24;18.07;;;11.10;;
6131;SDS011;3097;42.692;23.278;2024-02-14T05:23:49;16.53;;;10.70;;
6131;SDS011;3097;42.692;23.278;2024-02-14T05:26:15;15.60;;;10.97;;
6131;SDS011;3097;42.692;23.278;2024-02-14T05:28:41;16.63;;;11.40;;
6131;SDS011;3097;42.692;23.278;2024-02-14T05:31:07;15.27;;;11.13;;
6131;SDS011;3097;42.692;23.278;2024-02-14T05:33:33;18.80;;;12.63;;
6131;SDS011;3097;42.692;23.278;2024-02-14T05:35:59;20.80;;;13.60;;
6131;SDS011;3097;42.692;23.278;2024-02-14T05:38:24;25.63;;;16.27;;
6131;SDS011;3097;42.692;23.278;2024-02-14T05:40:50;16.47;;;11.67;;
6131;SDS011;3097;42.692;23.278;2024-02-14T05:43:16;19.00;;;12.63;;
6131;SDS011;3097;42.692;23.278;2024-02-14T05:45:46;16.93;;;11.00;;
6131;SDS011;3097;42.692;23.278;2024-02-14T05:48:11;19.50;;;12.03;;
6131;SDS011;3097;42.692;23.278;2024-02-14T05:50:37;20.30;;;11.83;;
6131;SDS011;3097;42.692;23.278;2024-02-14T05:53:03;16.67;;;11.77;;
6131;SDS011;3097;42.692;23.278;2024-02-14T05:55:29;14.97;;;11.00;;
6131;SDS011;3097;42.692;23.278;2024-02-14T05:57:54;16.70;;;11.47;;
6131;SDS011;3097;42.692;23.278;2024-02-14T06:00:22;14.97;;;9.53;;
6131;SDS011;3097;42.692;23.278;2024-02-14T06:02:48;15.07;;;10.20;;
6131;SDS011;3097;42.692;23.278;2024-02-14T06:05:14;16.07;;;10.40;;
6131;SDS011;3097;42.692;23.278;2024-02-14T06:07:40;17.57;;;10.87;;
6131;SDS011;3097;42.692;23.278;2024-02-14T06:10:06;15.23;;;10.37;;
6131;SDS011;3097;42.692;23.278;2024-02-14T06:12:33;14.83;;;10.23;;
6131;SDS011;3097;42.692;23.278;2024-02-14T06:14:59;15.00;;;10.57;;
6131;SDS011;3097;42.692;23.278;2024-02-14T06:17:25;16.03;;;9.50;;
6131;SDS011;3097;42.692;23.278;2024-02-14T06:19:54;14.07;;;8.97;;
6131;SDS011;3097;42.692;23.278;2024-02-14T06:22:19;15.33;;;9.97;;
6131;SDS011;3097;42.692;23.278;2024-02-14T06:24:46;14.70;;;10.30;;
6131;SDS011;3097;42.692;23.278;2024-02-14T06:27:13;22.40;;;11.57;;
6131;SDS011;3097;42.692;23.278;2024-02-14T06:29:42;14.87;;;9.93;;
6131;SDS011;3097;42.692;23.278;2024-02-14T06:32:08;16.60;;;10.47;;
6131;SDS011;3097;42.692;23.278;2024-02-14T06:34:34;16.80;;;10.87;;
6131;SDS011;3097;42.692;23.278;2024-02-14T06:36:59;18.30;;;11.63;;
6131;SDS011;3097;42.692;23.278;2024-02-14T06:39:25;18.83;;;9.60;;
6131;SDS011;3097;42.692;23.278;2024-02-14T06:41:50;14.60;;;10.17;;
6131;SDS011;3097;42.692;23.278;2024-02-14T06:44:16;15.70;;;10.23;;
6131;SDS011;3097;42.692;23.278;2024-02-14T06:46:43;15.93;;;10.20;;
6131;SDS011;3097;42.692;23.278;2024-02-14T06:49:09;14.53;;;10.07;;
6131;SDS011;3097;42.692;23.278;2024-02-14T06:51:34;13.17;;;9.83;;
6131;SDS011;3097;42.692;23.278;2024-02-14T06:54:00;14.37;;;10.27;;
6131;SDS011;3097;42.692;23.278;2024-02-14T06:56:26;12.97;;;9.73;;
6131;SDS011;3097;42.692;23.278;2024-02-14T06:58:51;14.67;;;9.30;;
6131;SDS011;3097;42.692;23.278;2024-02-14T07:01:19;13.27;;;9.63;;
6131;SDS011;3097;42.692;23.278;2024-02-14T07:03:48;12.43;;;9.00;;
6131;SDS011;3097;42.692;23.278;2024-02-14T07:06:14;10.63;;;8.17;;
6131;SDS011;3097;42.692;23.278;2024-02-14T07:08:43;11.67;;;7.77;;
6131;SDS011;3097;42.692;23.278;2024-02-14T07:11:08;13.70;;;8.70;;
6131;SDS011;3097;42.692;23.278;2024-02-14T07:13:34;12.90;;;9.20;;
6131;SDS011;3097;42.692;23.278;2024-02-14T07:15:59;13.83;;;8.60;;
6131;SDS011;3097;42.692;23.278;2024-02-14T07:18:25;12.23;;;8.83;;
6131;SDS011;3097;42.692;23.278;2024-02-14T07:20:51;9.77;;;8.00;;
6131;SDS011;3097;42.692;23.278;2024-02-14T07:23:18;13.70;;;9.20;;
6131;SDS011;3097;42.692;23.278;2024-02-14T07:25:43;10.53;;;8.70;;
6131;SDS011;3097;42.692;23.278;2024-02-14T07:28:09;12.63;;;8.80;;
6131;SDS011;3097;42.692;23.278;2024-02-14T07:30:35;15.50;;;9.67;;
6131;SDS011;3097;42.692;23.278;2024-02-14T07:33:01;8.33;;;6.87;;
6131;SDS011;3097;42.692;23.278;2024-02-14T07:35:26;10.97;;;8.97;;
6131;SDS011;3097;42.692;23.278;2024-02-14T07:37:52;11.47;;;8.93;;
6131;SDS011;3097;42.692;23.278;2024-02-14T07:40:18;12.27;;;9.00;;
6131;SDS011;3097;42.692;23.278;2024-02-14T07:42:43;13.50;;;9.20;;
6131;SDS011;3097;42.692;23.278;2024-02-14T07:45:09;11.67;;;8.53;;
6131;SDS011;3097;42.692;23.278;2024-02-14T07:47:34;13.60;;;8.40;;
6131;SDS011;3097;42.692;23.278;2024-02-14T07:50:00;13.43;;;9.20;;
6131;SDS011;3097;42.692;23.278;2024-02-14T07:52:25;12.70;;;8.80;;
6131;SDS011;3097;42.692;23.278;2024-02-14T07:54:52;8.50;;;7.40;;
6131;SDS011;3097;42.692;23.278;2024-02-14T07:57:19;13.77;;;8.83;;
6131;SDS011;3097;42.692;23.278;2024-02-14T07:59:44;13.43;;;9.13;;
6131;SDS011;3097;42.692;23.278;2024-02-14T08:02:10;10.23;;;7.47;;
6131;SDS011;3097;42.692;23.278;2024-02-14T08:04:35;11.07;;;8.80;;
6131;SDS011;3097;42.692;23.278;2024-02-14T08:07:01;13.70;;;9.33;;
6131;SDS011;3097;42.692;23.278;2024-02-14T08:09:26;15.77;;;9.67;;
6131;SDS011;3097;42.692;23.278;2024-02-14T08:11:52;11.03;;;8.23;;
6131;SDS011;3097;42.692;23.278;2024-02-14T08:14:18;10.17;;;7.67;;
6131;SDS011;3097;42.692;23.278;2024-02-14T08:16:44;11.70;;;8.73;;
6131;SDS011;3097;42.692;23.278;2024-02-14T08:19:09;11.83;;;8.73;;
6131;SDS011;3097;42.692;23.278;2024-02-14T08:21:35;12.77;;;8.47;;
6131;SDS011;3097;42.692;23.278;2024-02-14T08:24:01;11.27;;;8.03;;
6131;SDS011;3097;42.692;23.278;2024-02-14T08:26:26;17.43;;;10.73;;
6131;SDS011;3097;42.692;23.278;2024-02-14T08:28:52;10.23;;;8.60;;
6131;SDS011;3097;42.692;23.278;2024-02-14T08:31:19;13.07;;;9.10;;
6131;SDS011;3097;42.692;23.278;2024-02-14T08:33:45;15.87;;;9.90;;
6131;SDS011;3097;42.692;23.278;2024-02-14T08:36:11;13.43;;;9.43;;
6131;SDS011;3097;42.692;23.278;2024-02-14T08:38:36;14.60;;;9.93;;
6131;SDS011;3097;42.692;23.278;2024-02-14T08:41:02;15.87;;;8.50;;
6131;SDS011;3097;42.692;23.278;2024-02-14T08:43:28;11.07;;;8.57;;
6131;SDS011;3097;42.692;23.278;2024-02-14T08:45:55;10.20;;;8.13;;
6131;SDS011;3097;42.692;23.278;2024-02-14T08:48:21;14.07;;;9.23;;
6131;SDS011;3097;42.692;23.278;2024-02-14T08:50:47;13.03;;;8.40;;
6131;SDS011;3097;42.692;23.278;2024-02-14T08:53:13;15.57;;;9.40;;
6131;SDS011;3097;42.692;23.278;2024-02-14T08:55:42;12.43;;;8.20;;
6131;SDS011;3097;42.692;23.278;2024-02-14T08:58:08;11.60;;;8.73;;
6131;SDS011;3097;42.692;23.278;2024-02-14T09:00:36;11.20;;;8.00;;
6131;SDS011;3097;42.692;23.278;2024-02-14T09:03:04;13.13;;;8.40;;
6131;SDS011;3097;42.692;23.278;2024-02-14T09:05:30;12.10;;;8.90;;
6131;SDS011;3097;42.692;23.278;2024-02-14T09:07:56;15.97;;;9.63;;
6131;SDS011;3097;42.692;23.278;2024-02-14T09:10:21;15.30;;;9.20;;
6131;SDS011;3097;42.692;23.278;2024-02-14T09:12:47;14.77;;;10.20;;
6131;SDS011;3097;42.692;23.278;2024-02-14T09:15:13;10.47;;;8.10;;
6131;SDS011;3097;42.692;23.278;2024-02-14T09:17:38;12.07;;;8.17;;
6131;SDS011;3097;42.692;23.278;2024-02-14T09:20:06;11.77;;;8.97;;
6131;SDS011;3097;42.692;23.278;2024-02-14T09:22:35;12.90;;;8.70;;
6131;SDS011;3097;42.692;23.278;2024-02-14T09:25:01;11.50;;;8.37;;
6131;SDS011;3097;42.692;23.278;2024-02-14T09:27:29;13.17;;;9.57;;
6131;SDS011;3097;42.692;23.278;2024-02-14T09:29:55;10.00;;;8.60;;
6131;SDS011;3097;42.692;23.278;2024-02-14T09:32:21;10.77;;;8.73;;
6131;SDS011;3097;42.692;23.278;2024-02-14T09:34:46;14.17;;;9.13;;
6131;SDS011;3097;42.692;23.278;2024-02-14T09:37:12;11.10;;;8.20;;
6131;SDS011;3097;42.692;23.278;2024-02-14T09:39:38;13.30;;;9.20;;
6131;SDS011;3097;42.692;23.278;2024-02-14T09:42:06;12.40;;;9.17;;
6131;SDS011;3097;42.692;23.278;2024-02-14T09:44:35;12.10;;;8.93;;
6131;SDS011;3097;42.692;23.278;2024-02-14T09:47:04;12.30;;;8.77;;
6131;SDS011;3097;42.692;23.278;2024-02-14T09:49:31;14.43;;;8.70;;
6131;SDS011;3097;42.692;23.278;2024-02-14T09:51:57;13.57;;;8.40;;
6131;SDS011;3097;42.692;23.278;2024-02-14T09:54:26;11.97;;;8.57;;
6131;SDS011;3097;42.692;23.278;2024-02-14T09:56:52;12.57;;;8.87;;
6131;SDS011;3097;42.692;23.278;2024-02-14T09:59:22;14.10;;;9.40;;
6131;SDS011;3097;42.692;23.278;2024-02-14T10:01:49;9.60;;;8.03;;
6131;SDS011;3097;42.692;23.278;2024-02-14T10:04:16;8.80;;;6.97;;
6131;SDS011;3097;42.692;23.278;2024-02-14T10:06:44;14.57;;;8.90;;
6131;SDS011;3097;42.692;23.278;2024-02-14T10:09:18;11.73;;;8.53;;
6131;SDS011;3097;42.692;23.278;2024-02-14T10:11:47;9.27;;;7.43;;
6131;SDS011;3097;42.692;23.278;2024-02-14T10:14:13;11.80;;;8.87;;
6131;SDS011;3097;42.692;23.278;2024-02-14T10:16:38;16.37;;;10.27;;
6131;SDS011;3097;42.692;23.278;2024-02-14T10:19:04;10.37;;;7.57;;
6131;SDS011;3097;42.692;23.278;2024-02-14T10:21:32;15.30;;;9.70;;
6131;SDS011;3097;42.692;23.278;2024-02-14T10:24:01;10.93;;;8.37;;
6131;SDS011;3097;42.692;23.278;2024-02-14T10:26:28;8.50;;;7.00;;
6131;SDS011;3097;42.692;23.278;2024-02-14T10:28:56;11.37;;;7.93;;
6131;SDS011;3097;42.692;23.278;2024-02-14T10:31:25;11.77;;;8.07;;
6131;SDS011;3097;42.692;23.278;2024-02-14T10:33:51;10.47;;;7.80;;
6131;SDS011;3097;42.692;23.278;2024-02-14T10:36:19;10.57;;;8.33;;
6131;SDS011;3097;42.692;23.278;2024-02-14T10:38:47;9.23;;;7.30;;
6131;SDS011;3097;42.692;23.278;2024-02-14T10:41:15;9.13;;;7.47;;
6131;SDS011;3097;42.692;23.278;2024-02-14T10:43:42;14.23;;;9.07;;
6131;SDS011;3097;42.692;23.278;2024-02-14T10:46:12;12.00;;;7.83;;
6131;SDS011;3097;42.692;23.278;2024-02-14T10:48:45;16.20;;;9.60;;
6131;SDS011;3097;42.692;23.278;2024-02-14T10:51:11;13.03;;;9.30;;
6131;SDS011;3097;42.692;23.278;2024-02-14T10:53:39;13.67;;;9.60;;
6131;SDS011;3097;42.692;23.278;2024-02-14T10:56:10;12.83;;;9.00;;
6131;SDS011;3097;42.692;23.278;2024-02-14T10:58:38;12.37;;;8.33;;
6131;SDS011;3097;42.692;23.278;2024-02-14T11:01:06;15.63;;;9.93;;
6131;SDS011;3097;42.692;23.278;2024-02-14T11:03:34;9.17;;;7.77;;
6131;SDS011;3097;42.692;23.278;2024-02-14T11:06:01;12.27;;;8.63;;
6131;SDS011;3097;42.692;23.278;2024-02-14T11:08:29;11.87;;;7.90;;
6131;SDS011;3097;42.692;23.278;2024-02-14T11:10:59;10.50;;;8.53;;
6131;SDS011;3097;42.692;23.278;2024-02-14T11:13:25;10.57;;;8.03;;
6131;SDS011;3097;42.692;23.278;2024-02-14T11:15:56;11.73;;;8.27;;
6131;SDS011;3097;42.692;23.278;2024-02-14T11:18:25;11.40;;;8.40;;
6131;SDS011;3097;42.692;23.278;2024-02-14T11:20:51;14.27;;;9.53;;
6131;SDS011;3097;42.692;23.278;2024-02-14T11:23:21;12.57;;;9.10;;
6131;SDS011;3097;42.692;23.278;2024-02-14T11:25:47;14.67;;;8.70;;
6131;SDS011;3097;42.692;23.278;2024-02-14T11:28:16;11.63;;;7.67;;
6131;SDS011;3097;42.692;23.278;2024-02-14T11:30:46;10.57;;;8.23;;
6131;SDS011;3097;42.692;23.278;2024-02-14T11:35:41;11.83;;;8.50;;
6131;SDS011;3097;42.692;23.278;2024-02-14T11:38:07;9.17;;;7.90;;
6131;SDS011;3097;42.692;23.278;2024-02-14T11:40:34;10.47;;;8.13;;
6131;SDS011;3097;42.692;23.278;2024-02-14T11:43:00;12.67;;;8.30;;
6131;SDS011;3097;42.692;23.278;2024-02-14T11:45:27;8.50;;;7.13;;
6131;SDS011;3097;42.692;23.278;2024-02-14T11:47:53;10.37;;;7.97;;
6131;SDS011;3097;42.692;23.278;2024-02-14T11:50:18;11.00;;;8.33;;
6131;SDS011;3097;42.692;23.278;2024-02-14T11:52:44;9.57;;;7.07;;
6131;SDS011;3097;42.692;23.278;2024-02-14T11:55:10;9.10;;;7.50;;
6131;SDS011;3097;42.692;23.278;2024-02-14T11:57:37;12.20;;;7.47;;
6131;SDS011;3097;42.692;23.278;2024-02-14T12:00:03;10.87;;;8.40;;
6131;SDS011;3097;42.692;23.278;2024-02-14T12:02:29;11.03;;;8.50;;
6131;SDS011;3097;42.692;23.278;2024-02-14T12:04:55;10.13;;;8.27;;
6131;SDS011;3097;42.692;23.278;2024-02-14T12:07:22;10.87;;;8.07;;
6131;SDS011;3097;42.692;23.278;2024-02-14T12:09:48;13.37;;;9.37;;
6131;SDS011;3097;42.692;23.278;2024-02-14T12:12:14;17.70;;;10.67;;
6131;SDS011;3097;42.692;23.278;2024-02-14T12:14:43;16.50;;;10.20;;
6131;SDS011;3097;42.692;23.278;2024-02-14T12:17:10;18.07;;;10.83;;
6131;SDS011;3097;42.692;23.278;2024-02-14T12:19:36;15.23;;;10.80;;
6131;SDS011;3097;42.692;23.278;2024-02-14T12:22:08;15.90;;;9.97;;
6131;SDS011;3097;42.692;23.278;2024-02-14T12:24:37;13.40;;;9.17;;
6131;SDS011;3097;42.692;23.278;2024-02-14T12:27:04;16.83;;;11.40;;
6131;SDS011;3097;42.692;23.278;2024-02-14T12:29:29;19.57;;;11.33;;
6131;SDS011;3097;42.692;23.278;2024-02-14T12:32:07;16.23;;;10.43;;
6131;SDS011;3097;42.692;23.278;2024-02-14T12:34:33;10.80;;;8.93;;
6131;SDS011;3097;42.692;23.278;2024-02-14T12:36:59;12.80;;;9.53;;
6131;SDS011;3097;42.692;23.278;2024-02-14T12:39:26;10.70;;;8.53;;
6131;SDS011;3097;42.692;23.278;2024-02-14T12:41:52;11.90;;;9.13;;
6131;SDS011;3097;42.692;23.278;2024-02-14T12:44:18;10.87;;;8.07;;
6131;SDS011;3097;42.692;23.278;2024-02-14T12:46:43;11.73;;;8.20;;
6131;SDS011;3097;42.692;23.278;2024-02-14T12:49:09;10.40;;;7.43;;
6131;SDS011;3097;42.692;23.278;2024-02-14T12:51:36;11.03;;;8.07;;
6131;SDS011;3097;42.692;23.278;2024-02-14T12:54:03;13.50;;;8.60;;
6131;SDS011;3097;42.692;23.278;2024-02-14T12:56:29;16.17;;;9.10;;
6131;SDS011;3097;42.692;23.278;2024-02-14T12:58:54;15.67;;;10.23;;
6131;SDS011;3097;42.692;23.278;2024-02-14T13:01:20;16.30;;;10.20;;
6131;SDS011;3097;42.692;23.278;2024-02-14T13:03:46;14.10;;;9.53;;
6131;SDS011;3097;42.692;23.278;2024-02-14T13:06:11;12.23;;;8.87;;
6131;SDS011;3097;42.692;23.278;2024-02-14T13:08:39;13.13;;;8.83;;
6131;SDS011;3097;42.692;23.278;2024-02-14T13:11:05;15.60;;;10.23;;
6131;SDS011;3097;42.692;23.278;2024-02-14T13:13:34;13.00;;;9.67;;
6131;SDS011;3097;42.692;23.278;2024-02-14T13:16:00;12.67;;;8.60;;
6131;SDS011;3097;42.692;23.278;2024-02-14T13:18:25;14.10;;;8.13;;
6131;SDS011;3097;42.692;23.278;2024-02-14T13:20:51;13.43;;;9.40;;
6131;SDS011;3097;42.692;23.278;2024-02-14T13:23:22;14.47;;;9.57;;
6131;SDS011;3097;42.692;23.278;2024-02-14T13:25:48;13.27;;;9.27;;
6131;SDS011;3097;42.692;23.278;2024-02-14T13:28:14;17.20;;;9.57;;
6131;SDS011;3097;42.692;23.278;2024-02-14T13:30:39;12.83;;;9.07;;
6131;SDS011;3097;42.692;23.278;2024-02-14T13:33:05;13.77;;;9.50;;
6131;SDS011;3097;42.692;23.278;2024-02-14T13:35:31;13.53;;;9.63;;
6131;SDS011;3097;42.692;23.278;2024-02-14T13:37:57;12.67;;;9.03;;
6131;SDS011;3097;42.692;23.278;2024-02-14T13:40:23;11.93;;;8.90;;
6131;SDS011;3097;42.692;23.278;2024-02-14T13:42:49;13.53;;;9.20;;
6131;SDS011;3097;42.692;23.278;2024-02-14T13:45:14;17.40;;;9.33;;
6131;SDS011;3097;42.692;23.278;2024-02-14T13:47:41;18.70;;;11.67;;
6131;SDS011;3097;42.692;23.278;2024-02-14T13:50:10;20.83;;;11.97;;
6131;SDS011;3097;42.692;23.278;2024-02-14T13:52:36;18.30;;;11.10;;
6131;SDS011;3097;42.692;23.278;2024-02-14T13:55:02;19.13;;;11.27;;
6131;SDS011;3097;42.692;23.278;2024-02-14T13:57:30;21.73;;;12.13;;
6131;SDS011;3097;42.692;23.278;2024-02-14T13:59:57;21.97;;;12.90;;
6131;SDS011;3097;42.692;23.278;2024-02-14T14:02:22;22.83;;;13.53;;
6131;SDS011;3097;42.692;23.278;2024-02-14T14:04:49;20.27;;;12.93;;
6131;SDS011;3097;42.692;23.278;2024-02-14T14:07:15;27.00;;;15.60;;
6131;SDS011;3097;42.692;23.278;2024-02-14T14:09:41;27.83;;;17.10;;
6131;SDS011;3097;42.692;23.278;2024-02-14T14:12:06;35.70;;;22.47;;
6131;SDS011;3097;42.692;23.278;2024-02-14T14:14:32;48.90;;;26.20;;
6131;SDS011;3097;42.692;23.278;2024-02-14T14:16:57;50.57;;;26.30;;
6131;SDS011;3097;42.692;23.278;2024-02-14T14:19:23;28.97;;;15.97;;
6131;SDS011;3097;42.692;23.278;2024-02-14T14:21:48;20.13;;;11.87;;
6131;SDS011;3097;42.692;23.278;2024-02-14T14:24:14;21.13;;;12.20;;
6131;SDS011;3097;42.692;23.278;2024-02-14T14:26:41;22.03;;;13.83;;
6131;SDS011;3097;42.692;23.278;2024-02-14T14:29:06;27.30;;;14.13;;
6131;SDS011;3097;42.692;23.278;2024-02-14T14:31:32;22.73;;;13.63;;
6131;SDS011;3097;42.692;23.278;2024-02-14T14:34:00;10.67;;;7.37;;
6131;SDS011;3097;42.692;23.278;2024-02-14T14:36:26;15.40;;;9.40;;
6131;SDS011;3097;42.692;23.278;2024-02-14T14:38:52;13.60;;;8.73;;
6131;SDS011;3097;42.692;23.278;2024-02-14T14:41:19;12.90;;;8.67;;
6131;SDS011;3097;42.692;23.278;2024-02-14T14:43:45;12.07;;;8.67;;
6131;SDS011;3097;42.692;23.278;2024-02-14T14:46:14;15.43;;;9.87;;